Time;durP1;ratioP1;P1;durP2;ratioP2;P2;SDS_P1;SDS_P2;PMS_P1;PMS_P2;Temp;Humidity;BMP_temperature;BMP_pressure;BME280_temperature;BME280_humidity;BME280_pressure;Samples;Min_cycle;Max_cycle;Signal;HPM_P1;HPM_P2
2022/05/19 00:02:07;;;;;;;5.78;1.95;;;;;;;12.46;70.79;99789.00;10498377;28;20056;-78
2022/05/19 00:07:08;;;;;;;9.38;2.72;;;;;;;11.27;71.48;99637.09;10499088;28;20044;-78
2022/05/19 00:12:14;;;;;;;18.60;3.13;;;;;;;11.26;71.77;99627.47;10497767;28;20067;-78
2022/05/19 00:17:15;;;;;;;9.13;2.47;;;;;;;12.12;71.65;99816.41;10497614;28;20048;-78
2022/05/19 00:22:16;;;;;;;10.75;3.10;;;;;;;11.53;72.07;99728.78;10496778;28;20095;-78
2022/05/19 00:27:17;;;;;;;14.52;3.22;;;;;;;11.20;72.95;99679.56;10497466;28;20044;-78
2022/05/19 00:32:18;;;;;;;9.77;3.08;;;;;;;11.41;72.68;99713.31;10496182;28;20032;-78
2022/05/19 00:37:19;;;;;;;6.40;3.22;;;;;;;10.80;72.78;99614.53;10495046;28;20044;-78
2022/05/19 00:48:06;;;;;;;16.08;3.05;;;;;;;12.17;74.77;99855.75;10495754;28;20048;-77
2022/05/19 00:53:20;;;;;;;10.07;3.22;;;;;;;12.07;74.58;99862.22;10496484;28;20482;-78
2022/05/19 00:58:26;;;;;;;20.90;3.60;;;;;;;11.90;73.85;99846.69;10496346;28;20097;-78
2022/05/19 01:03:33;;;;;;;12.30;2.97;;;;;;;11.59;74.80;99861.03;10495644;28;20097;-78
2022/05/19 01:08:46;;;;;;;11.90;3.13;;;;;;;11.24;76.10;99814.78;10496409;28;20037;-78
2022/05/19 01:13:47;;;;;;;18.10;4.40;;;;;;;10.80;75.31;99760.66;10496491;28;20060;-78
2022/05/19 01:18:48;;;;;;;16.50;3.33;;;;;;;11.52;75.17;99871.59;10496269;28;20041;-78
2022/05/19 01:23:57;;;;;;;20.35;3.50;;;;;;;11.50;75.12;99876.28;10493798;28;20071;-78
2022/05/19 01:28:59;;;;;;;6.97;2.65;;;;;;;11.45;75.08;99888.47;10496654;28;20118;-78
2022/05/19 01:34:02;;;;;;;19.70;3.13;;;;;;;11.38;74.96;99880.41;10525692;28;20040;-78
2022/05/19 01:39:06;;;;;;;26.52;4.10;;;;;;;10.39;75.33;99745.16;10496250;28;20414;-78
2022/05/19 01:44:32;;;;;;;20.33;4.57;;;;;;;11.14;77.22;99873.56;10495491;28;20049;-77
2022/05/19 01:49:41;;;;;;;17.20;4.28;;;;;;;11.23;76.53;99899.03;10495714;28;20063;-77
2022/05/19 01:55:03;;;;;;;9.13;4.20;;;;;;;10.89;78.03;99844.59;10496233;28;20401;-77
2022/05/19 02:00:09;;;;;;;20.27;4.22;;;;;;;11.31;77.59;99895.47;10494866;28;20029;-78
2022/05/19 02:05:22;;;;;;;26.08;6.78;;;;;;;11.27;78.44;99883.53;10500478;28;20040;-78
2022/05/19 02:10:32;;;;;;;12.90;4.93;;;;;;;10.81;78.52;99796.00;10525067;28;20052;-77
2022/05/19 02:15:37;;;;;;;10.70;3.70;;;;;;;11.73;76.85;99907.28;10530166;28;20051;-78
2022/05/19 02:20:42;;;;;;;9.27;3.78;;;;;;;12.51;76.25;99945.63;10521872;28;20051;-77
2022/05/19 02:25:47;;;;;;;9.45;3.28;;;;;;;12.74;75.45;99956.06;10502065;28;20496;-77
2022/05/19 02:30:48;;;;;;;10.20;3.35;;;;;;;12.25;74.21;99832.47;10501223;28;20123;-78
2022/05/19 02:35:49;;;;;;;12.07;3.38;;;;;;;13.40;73.60;99951.28;10501388;28;20127;-79
2022/05/19 02:40:50;;;;;;;18.45;3.80;;;;;;;13.21;72.76;99821.25;10501630;28;20045;-78
2022/05/19 02:45:51;;;;;;;10.77;3.22;;;;;;;14.08;72.80;99961.25;10501819;28;20063;-78
2022/05/19 02:50:52;;;;;;;12.15;2.95;;;;;;;12.97;73.06;99818.03;10500784;28;20519;-79
2022/05/19 02:55:54;;;;;;;7.82;3.17;;;;;;;13.77;73.59;99961.75;10501474;28;20055;-79
2022/05/19 03:00:55;;;;;;;13.95;3.70;;;;;;;13.64;73.93;99958.00;10521380;28;20096;-78
2022/05/19 03:05:55;;;;;;;9.30;4.00;;;;;;;13.33;74.88;99920.25;10542301;28;20096;-77
2022/05/19 03:10:56;;;;;;;13.82;4.05;;;;;;;13.73;75.56;100013.88;10541658;28;20552;-77
2022/05/19 03:15:57;;;;;;;8.07;3.95;;;;;;;13.42;76.02;99988.44;10541765;28;20084;-78
2022/05/19 03:20:58;;;;;;;9.32;3.45;;;;;;;14.48;74.40;100026.34;10539481;28;20078;-75
2022/05/19 03:25:58;;;;;;;6.97;3.42;;;;;;;14.94;72.67;100048.88;10541363;28;20408;-77
2022/05/19 03:30:59;;;;;;;6.97;2.80;;;;;;;14.30;72.17;99945.94;10540905;28;20044;-91
2022/05/19 03:36:04;;;;;;;7.93;3.22;;;;;;;14.64;72.18;100002.97;10540686;28;20032;-85
2022/05/19 03:41:05;;;;;;;14.70;4.00;;;;;;;14.32;71.61;99919.81;10540498;28;20097;-82
2022/05/19 03:46:05;;;;;;;8.40;3.45;;;;;;;14.54;69.81;99867.06;10527162;28;20086;-80
2022/05/19 03:51:15;;;;;;;15.13;2.97;;;;;;;15.56;69.38;99959.31;10520361;28;20135;-79
2022/05/19 03:56:18;;;;;;;7.93;3.17;;;;;;;15.62;68.68;99977.22;10516045;28;20090;-83
2022/05/19 04:01:20;;;;;;;6.57;3.08;;;;;;;16.10;68.99;100051.91;10498112;28;20044;-90
2022/05/19 04:06:20;;;;;;;6.10;3.08;;;;;;;15.78;69.37;100044.78;10499853;28;20048;-78
2022/05/19 04:11:21;;;;;;;8.63;3.47;;;;;;;15.96;69.73;100075.22;10497380;28;20057;-78
2022/05/19 04:16:22;;;;;;;9.95;3.13;;;;;;;15.97;69.78;100084.94;10496611;28;20040;-76
2022/05/19 04:21:23;;;;;;;10.68;2.83;;;;;;;15.51;69.71;100018.84;10495909;28;20304;-80
2022/05/19 04:26:24;;;;;;;8.70;3.10;;;;;;;15.47;69.94;100032.84;10495823;28;20033;-79
2022/05/19 04:31:26;;;;;;;8.77;3.20;;;;;;;15.82;69.86;100087.00;10496259;28;20561;-78
2022/05/19 04:36:27;;;;;;;9.65;3.40;;;;;;;14.53;70.08;99868.06;10497379;28;20396;-82
2022/05/19 04:41:27;;;;;;;9.20;3.47;;;;;;;16.03;69.89;100087.78;10495725;28;20051;-81
2022/05/19 04:46:28;;;;;;;6.28;3.20;;;;;;;15.40;69.92;100008.75;10496010;28;20059;-82
2022/05/19 04:51:29;;;;;;;7.28;3.10;;;;;;;16.02;69.79;100067.38;10511896;28;20085;-82
2022/05/19 04:56:30;;;;;;;6.13;2.80;;;;;;;15.97;68.56;99990.31;10536012;28;20062;-81
2022/05/19 05:01:31;;;;;;;12.27;3.20;;;;;;;16.42;68.25;100047.47;10528644;28;20084;-79
2022/05/19 05:06:32;;;;;;;7.28;3.30;;;;;;;17.20;68.20;100126.06;10535385;28;20062;-81
2022/05/19 05:11:33;;;;;;;8.85;2.95;;;;;;;17.25;67.54;100116.31;10533547;28;20060;-82
2022/05/19 05:16:34;;;;;;;8.15;2.80;;;;;;;17.36;67.43;100138.16;10535927;28;20035;-78
2022/05/19 05:21:35;;;;;;;7.60;3.33;;;;;;;17.38;67.16;100139.59;10532734;28;20052;-77
2022/05/19 05:26:36;;;;;;;4.35;2.50;;;;;;;15.80;67.17;99898.09;10531308;28;20044;-76
2022/05/19 05:31:36;;;;;;;6.00;3.17;;;;;;;16.33;67.45;99980.88;10536360;28;20454;-77
2022/05/19 05:36:37;;;;;;;9.60;3.05;;;;;;;17.57;67.57;100156.59;10538249;28;20039;-81
2022/05/19 05:41:38;;;;;;;8.95;3.00;;;;;;;17.57;67.04;100135.09;10537110;28;20070;-75
2022/05/19 05:46:40;;;;;;;6.30;3.08;;;;;;;17.72;66.08;100142.84;10536444;28;20529;-78
2022/05/19 05:51:40;;;;;;;7.97;2.92;;;;;;;18.16;65.97;100155.28;10536324;28;20036;-76
2022/05/19 05:56:42;;;;;;;6.47;2.72;;;;;;;19.23;63.32;100164.75;10545238;28;20043;-77
2022/05/19 06:01:42;;;;;;;4.53;2.25;;;;;;;20.02;60.92;100125.78;10544763;28;20470;-80
2022/05/19 06:06:45;;;;;;;11.45;3.03;;;;;;;19.92;59.72;100028.47;10544780;28;20118;-77
2022/05/19 06:11:46;;;;;;;11.25;2.70;;;;;;;20.83;58.82;100147.47;10543084;28;20052;-79
2022/05/19 06:16:47;;;;;;;9.15;2.65;;;;;;;20.47;58.54;100078.44;10544274;28;20048;-73
2022/05/19 06:21:48;;;;;;;5.65;2.30;;;;;;;20.70;57.42;100023.56;10543453;28;20040;-72
2022/05/19 06:26:49;;;;;;;7.15;2.22;;;;;;;21.67;55.94;100146.00;10543249;28;20072;-72
2022/05/19 06:31:49;;;;;;;7.30;2.35;;;;;;;21.73;55.31;100156.63;10543765;28;20088;-73
2022/05/19 06:36:50;;;;;;;11.90;2.15;;;;;;;21.32;54.59;100031.63;10540032;28;20049;-75
2022/05/19 06:42:00;;;;;;;6.70;2.08;;;;;;;22.06;53.34;100111.69;10501457;28;20119;-73
2022/05/19 06:47:03;;;;;;;23.27;3.42;;;;;;;22.18;52.30;100153.00;10500387;28;20135;-75
2022/05/19 06:52:04;;;;;;;11.18;2.13;;;;;;;22.33;52.44;100141.56;10500993;28;20139;-72
2022/05/19 06:57:05;;;;;;;5.88;1.77;;;;;;;22.01;51.69;100044.00;10500312;28;20090;-70
2022/05/19 07:02:09;;;;;;;3.95;1.88;;;;;;;22.49;51.02;100172.34;10500206;28;20037;-71
2022/05/19 07:07:10;;;;;;;;;;;;;;;22.98;51.63;100172.47;10500394;28;20048;-72
2022/05/19 07:12:11;;;;;;;7.00;1.70;;;;;;;22.17;50.74;100059.41;10499565;28;19920;-72
2022/05/19 07:17:13;;;;;;;4.53;1.48;;;;;;;22.34;50.71;100162.16;10500162;28;20044;-70
2022/05/19 07:22:18;;;;;;;3.05;1.30;;;;;;;22.45;50.67;100182.88;10499817;28;20377;-74
2022/05/19 07:27:19;;;;;;;2.95;1.10;;;;;;;22.89;50.20;100184.78;10502214;28;20083;-76
2022/05/19 07:32:21;;;;;;;6.22;1.02;;;;;;;22.69;50.15;100196.19;10502053;28;20086;-72
2022/05/19 07:37:26;;;;;;;2.50;1.10;;;;;;;22.39;49.95;100161.41;10538258;28;20408;-71
2022/05/19 07:42:27;;;;;;;2.55;0.88;;;;;;;22.88;49.81;100173.09;10540310;28;20047;-73
2022/05/19 07:47:29;;;;;;;2.33;1.10;;;;;;;23.20;49.50;100167.81;10539992;28;20047;-74
2022/05/19 07:52:30;;;;;;;3.38;1.13;;;;;;;23.08;48.72;100179.88;10539993;28;20066;-72
2022/05/19 07:57:31;;;;;;;5.03;1.48;;;;;;;23.24;49.27;100179.78;10540176;28;20445;-71
2022/05/19 08:02:32;;;;;;;2.20;1.20;;;;;;;23.28;48.48;100161.13;10534554;28;20051;-66
2022/05/19 08:07:32;;;;;;;2.90;1.08;;;;;;;23.33;48.08;100177.41;10537257;28;20054;-66
2022/05/19 08:17:52;;;;;;;2.25;1.08;;;;;;;23.54;48.10;100181.13;10533976;28;20123;-66
2022/05/19 08:22:53;;;;;;;3.78;1.13;;;;;;;23.42;47.87;100194.88;10536663;28;20046;-69
2022/05/19 08:27:56;;;;;;;2.58;1.10;;;;;;;23.43;47.43;100192.97;10523358;28;20499;-70
2022/05/19 08:32:57;;;;;;;8.63;1.50;;;;;;;23.68;47.41;100198.59;10496445;28;20118;-67
2022/05/19 08:37:58;;;;;;;2.33;1.08;;;;;;;23.58;47.33;100193.09;10495990;28;20134;-66
2022/05/19 08:43:00;;;;;;;4.65;1.35;;;;;;;23.79;47.61;100193.31;10510903;28;20079;-67
2022/05/19 08:48:06;;;;;;;4.03;1.58;;;;;;;24.41;46.67;100194.53;10535267;28;20483;-69
2022/05/19 08:53:10;;;;;;;2.60;1.20;;;;;;;24.53;45.90;100170.72;10532890;28;20081;-66
2022/05/19 08:58:35;;;;;;;5.40;1.30;;;;;;;24.54;46.04;100194.91;10530008;28;20696;-67
2022/05/19 09:03:59;;;;;;;4.53;1.45;;;;;;;24.22;46.66;100180.59;10495581;28;20531;-66
2022/05/19 09:09:23;;;;;;;2.20;1.15;;;;;;;23.66;47.25;100184.50;10524437;28;20402;-66
2022/05/19 09:14:27;;;;;;;4.20;1.38;;;;;;;23.38;48.08;100176.66;10537445;28;20087;-67
2022/05/19 09:19:36;;;;;;;5.70;1.45;;;;;;;23.38;48.13;100182.88;10537079;28;20048;-66
2022/05/19 09:24:38;;;;;;;4.70;1.58;;;;;;;22.99;47.91;100191.16;10537463;28;20381;-67
2022/05/19 09:29:45;;;;;;;3.33;1.55;;;;;;;22.93;46.65;100180.50;10526876;28;20036;-66
2022/05/19 09:34:49;;;;;;;3.17;1.50;;;;;;;22.47;47.49;100183.47;10525613;28;20169;-67
2022/05/19 09:40:00;;;;;;;5.45;1.63;;;;;;;21.56;47.42;100091.75;10545850;28;20067;-65
2022/05/19 09:45:01;;;;;;;3.90;1.52;;;;;;;22.04;47.88;100192.25;10518224;28;20040;-66
2022/05/19 09:50:08;;;;;;;6.93;1.95;;;;;;;21.53;47.13;100086.84;10502582;28;20048;-66
2022/05/19 09:55:12;;;;;;;4.72;2.00;;;;;;;22.02;47.08;100170.06;10503184;28;20123;-67
2022/05/19 10:00:20;;;;;;;2.83;1.73;;;;;;;22.49;47.22;100215.66;10502908;28;20044;-65
2022/05/19 10:05:36;;;;;;;5.25;2.08;;;;;;;22.71;46.65;100194.06;10502943;28;20052;-66
2022/05/19 10:10:47;;;;;;;4.55;2.47;;;;;;;23.32;45.55;100234.59;10502214;28;20060;-66
2022/05/19 10:16:29;;;;;;;5.05;2.40;;;;;;;23.08;44.91;100205.06;10502442;28;20040;-67
2022/05/19 10:21:39;;;;;;;4.18;2.20;;;;;;;23.46;44.42;100241.25;10502195;28;20051;-67
2022/05/19 10:26:45;;;;;;;10.38;2.63;;;;;;;22.60;43.12;100132.72;10503429;28;20043;-69
2022/05/19 10:32:24;;;;;;;7.20;3.08;;;;;;;23.07;41.17;100257.63;10501779;28;20520;-68
2022/05/19 10:37:46;;;;;;;7.93;3.15;;;;;;;22.61;40.23;100273.22;10500615;28;20070;-66
2022/05/19 10:42:58;;;;;;;6.50;3.10;;;;;;;22.56;39.96;100278.59;10500240;28;20044;-67
2022/05/19 10:48:15;;;;;;;8.77;3.38;;;;;;;22.56;39.19;100281.31;10500534;28;20119;-66
2022/05/19 10:53:18;;;;;;;5.30;3.22;;;;;;;22.53;40.72;100281.81;10501027;28;20041;-68
2022/05/19 10:58:56;;;;;;;7.30;3.20;;;;;;;22.64;39.78;100283.56;10499051;28;20481;-66
2022/05/19 11:04:28;;;;;;;6.32;3.55;;;;;;;22.78;40.44;100295.69;10500281;28;20419;-67
2022/05/19 11:09:54;;;;;;;12.40;3.70;;;;;;;23.00;39.74;100300.31;10499961;28;20029;-68
2022/05/19 11:15:16;;;;;;;6.50;3.70;;;;;;;22.99;38.53;100304.94;10500698;28;20456;-66
2022/05/19 11:20:22;;;;;;;6.97;3.72;;;;;;;22.98;38.78;100297.88;10507610;28;20047;-68
2022/05/19 11:31:02;;;;;;;8.38;4.00;;;;;;;22.47;39.61;100304.44;10526523;28;20480;-67
2022/05/19 11:36:33;;;;;;;11.20;5.43;;;;;;;22.44;40.34;100307.66;10509752;28;20214;-66
2022/05/19 11:41:36;;;;;;;12.95;4.45;;;;;;;22.10;41.12;100302.19;10533655;28;20415;-65
2022/05/19 11:47:13;;;;;;;12.90;4.67;;;;;;;22.07;41.03;100310.78;10534641;28;20132;-69
2022/05/19 11:57:59;;;;;;;8.02;3.90;;;;;;;21.13;42.08;100230.13;10532649;28;20036;-66
2022/05/19 12:03:14;;;;;;;7.63;4.40;;;;;;;21.61;42.11;100302.69;10538198;28;20042;-67
2022/05/19 12:08:23;;;;;;;7.22;4.10;;;;;;;21.65;41.86;100309.25;10535531;28;20050;-67
2022/05/19 12:13:34;;;;;;;9.73;3.97;;;;;;;21.35;41.87;100262.69;10535556;28;20144;-67
2022/05/19 12:18:41;;;;;;;9.38;4.30;;;;;;;21.16;41.70;100259.38;10534122;28;20040;-70
2022/05/19 12:23:43;;;;;;;5.57;3.85;;;;;;;21.36;41.76;100297.63;10536572;28;20055;-67
2022/05/19 12:29:15;;;;;;;7.40;4.10;;;;;;;21.49;41.64;100298.41;10536686;28;20120;-69
2022/05/19 12:34:19;;;;;;;6.82;4.10;;;;;;;21.79;40.92;100284.63;10508285;28;20043;-68
2022/05/19 12:39:19;;;;;;;;;;;;;;;22.13;41.08;100301.69;10518179;28;20046;-66
2022/05/19 12:44:35;;;;;;;7.45;4.10;;;;;;;20.29;41.47;100071.34;10537824;28;19915;-70
2022/05/19 12:49:37;;;;;;;17.17;4.65;;;;;;;21.09;41.11;100273.00;10525399;28;20403;-70
2022/05/19 12:54:51;;;;;;;6.57;4.75;;;;;;;20.45;41.64;100204.66;10531817;28;20080;-71
2022/05/19 13:00:06;;;;;;;6.68;4.55;;;;;;;20.87;42.84;100302.50;10533748;28;20063;-68
2022/05/19 13:05:50;;;;;;;8.75;4.65;;;;;;;20.71;43.18;100314.03;10535408;28;20410;-67
2022/05/19 13:10:52;;;;;;;12.15;4.78;;;;;;;19.37;43.29;100120.41;10529568;28;20083;-67
2022/05/19 13:15:54;;;;;;;11.97;4.90;;;;;;;20.51;43.14;100303.56;10532128;28;20067;-68
2022/05/19 13:21:28;;;;;;;7.97;4.57;;;;;;;20.54;43.14;100307.69;10521223;28;20292;-68
2022/05/19 13:26:30;;;;;;;;;;;;;;;20.51;43.26;100311.66;10530464;28;20052;-67
2022/05/19 13:31:31;;;;;;;9.68;5.43;;;;;;;20.17;43.74;100308.69;10533029;28;19920;-71
2022/05/19 13:36:35;;;;;;;14.80;5.38;;;;;;;20.22;44.17;100321.47;10504111;28;20131;-67
2022/05/19 13:41:49;;;;;;;9.32;5.38;;;;;;;20.26;43.73;100314.56;10519647;28;20051;-67
2022/05/19 13:46:51;;;;;;;9.32;5.25;;;;;;;19.90;44.33;100289.41;10505111;28;20135;-66
2022/05/19 13:51:52;;;;;;;12.80;5.45;;;;;;;19.56;44.38;100262.09;10495783;28;20434;-66
2022/05/19 13:56:59;;;;;;;11.27;5.93;;;;;;;19.38;44.60;100262.97;10530085;28;20097;-66
2022/05/19 14:02:10;;;;;;;14.35;6.45;;;;;;;19.09;45.73;100224.19;10537050;28;20146;-68
2022/05/19 14:07:14;;;;;;;13.23;6.80;;;;;;;19.43;45.75;100288.38;10535095;28;20123;-66
2022/05/19 14:12:27;;;;;;;;;;;;;;;19.64;45.24;100319.41;10536262;28;20138;-68
2022/05/19 14:17:34;;;;;;;10.93;6.10;;;;;;;19.29;46.36;100322.75;10542734;28;19930;-66
2022/05/19 14:22:35;;;;;;;9.52;6.50;;;;;;;19.11;46.73;100327.09;10544101;28;20391;-67
2022/05/19 14:27:38;;;;;;;9.73;6.30;;;;;;;18.94;46.98;100315.28;10543912;28;20089;-69
2022/05/19 14:32:55;;;;;;;8.75;6.43;;;;;;;18.62;47.64;100277.69;10542555;28;20098;-69
2022/05/19 14:38:05;;;;;;;10.55;6.63;;;;;;;18.82;47.64;100342.13;10542909;28;20044;-65
2022/05/19 14:43:16;;;;;;;11.73;6.63;;;;;;;18.50;48.01;100292.91;10543329;28;20127;-67
2022/05/19 14:48:33;;;;;;;12.77;7.10;;;;;;;17.92;47.95;100218.75;10541990;28;20036;-69
2022/05/19 14:53:35;;;;;;;9.00;7.10;;;;;;;18.54;48.04;100328.25;10541166;28;20036;-68
2022/05/19 14:58:46;;;;;;;11.40;8.07;;;;;;;18.48;49.23;100346.09;10543661;28;20048;-68
2022/05/19 15:03:48;;;;;;;11.88;7.50;;;;;;;18.07;48.45;100312.53;10542573;28;20463;-65
2022/05/19 15:08:53;;;;;;;12.40;7.10;;;;;;;17.24;47.97;100211.34;10517247;28;20556;-65
2022/05/19 15:13:54;;;;;;;13.02;6.13;;;;;;;17.93;47.13;100351.28;10509686;28;20071;-69
2022/05/19 15:18:56;;;;;;;20.55;6.05;;;;;;;16.93;47.18;100216.63;10536971;28;20032;-67
2022/05/19 15:23:57;;;;;;;6.53;4.32;;;;;;;17.48;46.83;100332.47;10541824;28;20151;-68
2022/05/19 15:28:57;;;;;;;6.82;3.42;;;;;;;17.44;46.95;100356.25;10528331;28;20123;-66
2022/05/19 15:33:58;;;;;;;7.65;3.60;;;;;;;16.43;46.84;100193.88;10499356;28;20448;-66
2022/05/19 15:38:59;;;;;;;7.45;3.95;;;;;;;16.04;46.86;100157.25;10498692;28;20513;-67
2022/05/19 15:44:00;;;;;;;9.10;3.53;;;;;;;17.26;47.19;100364.13;10499332;28;20040;-67
2022/05/19 15:49:01;;;;;;;9.82;4.30;;;;;;;16.95;47.29;100356.78;10498130;28;20076;-66
2022/05/19 15:54:02;;;;;;;9.80;3.90;;;;;;;16.89;47.38;100358.44;10526874;28;20479;-66
2022/05/19 15:59:03;;;;;;;5.43;3.10;;;;;;;16.48;47.27;100313.06;10530552;28;20441;-72
2022/05/19 16:04:04;;;;;;;7.13;4.00;;;;;;;16.83;47.78;100378.06;10481124;28;20102;-69
2022/05/19 16:09:05;;;;;;;11.48;4.38;;;;;;;16.89;47.94;100394.16;10497240;28;20036;-69
2022/05/19 16:14:08;;;;;;;7.22;3.88;;;;;;;16.67;48.15;100381.97;10497995;28;20057;-68
2022/05/19 16:19:08;;;;;;;6.30;3.78;;;;;;;16.52;48.23;100365.25;10497646;28;20559;-70
2022/05/19 16:24:09;;;;;;;11.45;4.07;;;;;;;15.95;48.26;100279.88;10497415;28;20046;-70
2022/05/19 16:29:11;;;;;;;9.00;4.30;;;;;;;16.38;48.39;100369.78;10497616;28;20128;-69
2022/05/19 16:34:12;;;;;;;7.53;4.53;;;;;;;16.54;48.65;100414.13;10497238;28;20053;-67
2022/05/19 16:39:12;;;;;;;7.95;4.07;;;;;;;16.03;48.73;100342.31;10489660;28;20041;-72
2022/05/19 16:44:13;;;;;;;6.60;4.28;;;;;;;16.38;48.93;100421.53;10466170;28;20099;-70
2022/05/19 16:49:17;;;;;;;6.82;4.20;;;;;;;15.47;48.89;100290.66;10455371;28;20044;-71
2022/05/19 16:59:37;;;;;;;13.65;4.88;;;;;;;15.26;48.70;100328.25;10474795;28;20131;-71
2022/05/19 17:04:38;;;;;;;8.52;4.90;;;;;;;15.84;49.23;100451.09;10469499;28;20051;-71
2022/05/19 17:09:39;;;;;;;9.82;4.53;;;;;;;15.38;49.86;100420.34;10479235;28;20124;-72
2022/05/19 17:14:42;;;;;;;10.52;4.47;;;;;;;15.40;50.48;100458.44;10480989;28;20139;-74
2022/05/19 17:19:42;;;;;;;14.63;4.53;;;;;;;15.17;51.49;100463.25;10478722;28;20079;-74
2022/05/19 17:24:43;;;;;;;14.65;3.85;;;;;;;14.11;52.04;100332.16;10468392;28;20069;-73
2022/05/19 17:29:44;;;;;;;9.18;4.38;;;;;;;14.73;52.66;100470.50;10473155;28;20508;-72
2022/05/19 17:34:45;;;;;;;8.43;3.78;;;;;;;14.35;53.11;100467.22;10469603;28;20044;-72
2022/05/19 17:39:46;;;;;;;6.50;3.45;;;;;;;14.35;53.56;100476.06;10473317;28;20119;-72
2022/05/19 17:44:47;;;;;;;9.10;3.58;;;;;;;13.48;54.24;100355.91;10454982;28;20136;-75
2022/05/19 17:49:48;;;;;;;5.70;3.30;;;;;;;13.41;54.76;100371.03;10472703;28;20419;-74
2022/05/19 17:54:48;;;;;;;8.68;3.30;;;;;;;13.37;54.38;100399.94;10476484;28;20041;-73
2022/05/19 17:59:49;;;;;;;5.22;3.03;;;;;;;13.89;54.75;100480.88;10470213;28;20045;-73
2022/05/19 18:04:50;;;;;;;9.82;2.97;;;;;;;13.88;54.97;100497.88;10460878;28;20045;-74
2022/05/19 18:09:51;;;;;;;6.10;3.13;;;;;;;13.23;55.57;100432.72;10461504;28;20051;-72
2022/05/19 18:20:13;;;;;;;5.60;2.63;;;;;;;13.48;55.74;100506.19;10460950;28;20110;-71
2022/05/19 18:25:14;;;;;;;4.88;2.72;;;;;;;13.40;56.25;100484.09;10460346;28;20048;-71
2022/05/19 18:30:15;;;;;;;5.60;3.28;;;;;;;13.48;56.72;100497.34;10461052;28;20408;-72
2022/05/19 18:35:16;;;;;;;4.32;2.72;;;;;;;12.93;56.98;100422.03;10459771;28;20052;-72
2022/05/19 18:45:36;;;;;;;6.13;3.10;;;;;;;13.53;56.93;100524.34;10459241;28;20032;-71
2022/05/19 18:50:36;;;;;;;5.50;3.10;;;;;;;13.53;56.91;100516.31;10459338;28;20041;-72
2022/05/19 18:55:37;;;;;;;4.47;2.78;;;;;;;13.59;58.02;100520.94;10459260;28;20036;-72
2022/05/19 19:00:40;;;;;;;6.60;2.90;;;;;;;13.41;58.55;100510.59;10459177;28;20040;-72
2022/05/19 19:05:41;;;;;;;6.80;2.92;;;;;;;13.18;58.99;100491.13;10459339;28;20041;-73
2022/05/19 19:10:42;;;;;;;4.38;3.05;;;;;;;12.42;59.17;100384.50;10458255;28;20140;-72
2022/05/19 19:15:43;;;;;;;6.13;3.30;;;;;;;11.65;59.47;100257.56;10458178;28;20068;-73
2022/05/19 19:20:45;;;;;;;5.38;2.95;;;;;;;12.48;59.97;100391.78;10468612;28;20056;-72
2022/05/19 19:25:46;;;;;;;4.85;2.78;;;;;;;13.19;59.72;100509.63;10478749;28;20415;-72
2022/05/19 19:30:46;;;;;;;8.07;3.03;;;;;;;13.26;59.88;100515.09;10500271;28;20051;-73
2022/05/19 19:35:47;;;;;;;4.75;2.63;;;;;;;13.12;60.74;100523.84;10457635;28;20043;-71
2022/05/19 19:40:48;;;;;;;8.52;3.00;;;;;;;12.59;62.04;100475.78;10458026;28;20447;-71
2022/05/19 19:45:49;;;;;;;4.57;3.10;;;;;;;12.69;62.92;100523.53;10457743;28;20437;-70
2022/05/19 19:56:09;;;;;;;6.75;3.55;;;;;;;12.46;64.92;100550.97;10456671;28;20119;-72
2022/05/19 20:01:10;;;;;;;6.72;3.10;;;;;;;11.62;65.31;100417.56;10456523;28;20504;-71
2022/05/19 20:06:12;;;;;;;6.40;3.55;;;;;;;12.15;66.03;100521.69;10456598;28;20049;-72
2022/05/19 20:11:13;;;;;;;9.15;3.60;;;;;;;11.93;66.33;100463.84;10455328;28;20056;-72
2022/05/19 20:16:14;;;;;;;5.55;3.33;;;;;;;11.59;66.30;100420.56;10456516;28;20487;-72
2022/05/19 20:21:16;;;;;;;6.13;3.50;;;;;;;12.17;67.17;100524.97;10456205;28;20063;-72
2022/05/19 20:26:17;;;;;;;6.18;3.50;;;;;;;12.21;67.27;100558.28;10455651;28;20040;-72
2022/05/19 20:31:18;;;;;;;8.05;3.47;;;;;;;12.06;67.93;100565.34;10456359;28;20126;-73
2022/05/19 20:36:19;;;;;;;10.45;3.92;;;;;;;11.97;68.82;100569.03;10455758;28;20110;-72
2022/05/19 20:41:20;;;;;;;7.70;3.58;;;;;;;11.65;69.80;100549.44;10455417;28;20041;-72
2022/05/19 20:46:20;;;;;;;6.15;3.60;;;;;;;11.60;71.28;100565.91;10455500;28;20094;-74
2022/05/19 20:51:21;;;;;;;7.25;3.97;;;;;;;11.50;72.39;100591.88;10455952;28;20128;-72
2022/05/19 20:56:23;;;;;;;6.10;4.13;;;;;;;9.71;74.26;100332.22;10454437;28;20044;-71
2022/05/19 21:01:24;;;;;;;10.23;4.38;;;;;;;11.16;76.25;100597.38;10454884;28;20041;-71
2022/05/19 21:06:25;;;;;;;8.45;4.60;;;;;;;10.78;77.59;100554.47;10455031;28;20040;-71
2022/05/19 21:11:26;;;;;;;8.38;4.65;;;;;;;10.19;78.71;100476.63;10455168;28;20064;-72
2022/05/19 21:16:27;;;;;;;8.30;4.63;;;;;;;10.44;79.43;100525.31;10454320;28;20139;-71
2022/05/19 21:21:28;;;;;;;12.25;4.43;;;;;;;10.64;81.26;100568.38;10454328;28;20123;-71
2022/05/19 21:26:30;;;;;;;8.35;4.85;;;;;;;10.78;81.91;100581.03;10453496;28;20523;-72
2022/05/19 21:31:31;;;;;;;7.57;4.13;;;;;;;10.90;83.05;100586.88;10452734;28;20123;-72
2022/05/19 21:36:33;;;;;;;8.57;4.82;;;;;;;10.66;83.85;100543.31;10455096;28;20051;-72
2022/05/19 21:41:34;;;;;;;18.25;5.00;;;;;;;10.93;84.97;100573.25;10453019;28;20167;-72
2022/05/19 21:46:34;;;;;;;10.25;4.90;;;;;;;10.90;85.08;100563.78;10452223;28;20120;-73
2022/05/19 21:56:54;;;;;;;8.13;4.47;;;;;;;11.13;86.54;100571.13;10453093;28;20404;-74
2022/05/19 22:01:55;;;;;;;11.32;4.72;;;;;;;10.40;86.90;100420.44;10454049;28;20045;-73
2022/05/19 22:12:15;;;;;;;9.77;5.35;;;;;;;11.16;87.88;100546.84;10453478;28;20456;-73
2022/05/19 22:17:16;;;;;;;7.78;4.13;;;;;;;11.36;88.08;100547.31;10453261;28;20033;-73
2022/05/19 22:22:17;;;;;;;7.18;4.30;;;;;;;11.33;88.77;100547.66;10453326;28;20408;-75
2022/05/19 22:27:18;;;;;;;10.35;4.93;;;;;;;11.38;89.08;100545.34;10453091;28;20048;-75
2022/05/19 22:32:20;;;;;;;7.20;4.32;;;;;;;11.36;89.73;100542.00;10453053;28;20037;-74
2022/05/19 22:37:21;;;;;;;9.05;4.15;;;;;;;11.38;89.66;100540.84;10457613;28;20378;-75
2022/05/19 22:42:21;;;;;;;8.00;4.43;;;;;;;10.66;90.10;100393.72;10460143;28;20045;-75
2022/05/19 22:47:37;;;;;;;7.53;4.28;;;;;;;11.46;90.63;100534.69;10459367;28;20036;-75
2022/05/19 22:52:40;;;;;;;6.20;3.78;;;;;;;11.41;91.52;100532.53;10459787;28;20072;-74
2022/05/19 22:57:41;;;;;;;7.63;3.80;;;;;;;11.19;90.98;100494.16;10459479;28;20045;-76
2022/05/19 23:02:43;;;;;;;9.55;4.32;;;;;;;11.27;90.76;100511.91;10459609;28;20467;-75
2022/05/19 23:07:44;;;;;;;10.65;4.50;;;;;;;11.27;91.36;100527.06;10459791;28;20040;-75
2022/05/19 23:12:44;;;;;;;7.00;4.00;;;;;;;11.26;91.31;100510.28;10459217;28;20061;-75
2022/05/19 23:17:45;;;;;;;6.60;4.18;;;;;;;10.21;90.91;100326.81;10458869;28;20045;-76
2022/05/19 23:22:46;;;;;;;8.02;4.43;;;;;;;10.64;91.63;100398.34;10458679;28;20095;-75
2022/05/19 23:27:47;;;;;;;6.53;4.50;;;;;;;10.65;91.51;100368.13;10458448;28;20389;-76
2022/05/19 23:38:08;;;;;;;7.75;4.55;;;;;;;11.31;91.57;100465.41;10457409;28;20452;-75
2022/05/19 23:43:08;;;;;;;6.93;4.00;;;;;;;11.14;91.80;100424.69;10457948;28;20041;-75
2022/05/19 23:48:14;;;;;;;8.23;4.40;;;;;;;11.30;93.07;100436.28;10457715;28;20091;-75
2022/05/19 23:53:17;;;;;;;10.10;4.10;;;;;;;11.48;91.68;100460.00;10456758;28;20068;-76
2022/05/19 23:58:18;;;;;;;10.15;5.00;;;;;;;11.42;91.26;100456.22;10457255;28;20044;-76
